QFA55 PAJN-PANC
Flight info
| Callsign | QFA55 |
|---|---|
| Flight time | 1h 30m |
| Altitude | 36000 |
| Route | JNU7 SSR J541 YAK J501 JOH WITTI5 |
| Aircraft | B738/M-SDE2E3FGHIRWXY/LB1 |
Departure
| Time | 2026-04-30 10:18 |
|---|---|
| Airport | Juneau International Airport (PAJN) |
Arrival
| Time | 2026-04-30 11:48 |
|---|---|
| Airport | Ted Stevens Anchorage International Airport (PANC) |
| Time | Latitude | Longitude | Altitude | Speed | Heading |
|---|---|---|---|---|---|
| 2026-04-30 10:02 | 58.35881 | -134.58480 | 30 ft | 0 kts | 97° |
| 2026-04-30 10:11 | 58.35881 | -134.58496 | 30 ft | 3 kts | 96° |
| 2026-04-30 10:11 | 58.35883 | -134.58541 | 30 ft | 3 kts | 84° |
| 2026-04-30 10:12 | 58.35877 | -134.58584 | 30 ft | 3 kts | 78° |
| 2026-04-30 10:12 | 58.35882 | -134.58623 | 30 ft | 3 kts | 134° |
| 2026-04-30 10:12 | 58.35898 | -134.58648 | 30 ft | 0 kts | 142° |
| 2026-04-30 10:14 | 58.35834 | -134.58617 | 30 ft | 14 kts | 181° |
| 2026-04-30 10:15 | 58.35765 | -134.58719 | 30 ft | 15 kts | 277° |
| 2026-04-30 10:15 | 58.35794 | -134.58924 | 30 ft | 18 kts | 285° |
| 2026-04-30 10:15 | 58.35828 | -134.59176 | 30 ft | 21 kts | 284° |
| 2026-04-30 10:15 | 58.35868 | -134.59459 | 30 ft | 19 kts | 284° |
| 2026-04-30 10:16 | 58.35882 | -134.59635 | 30 ft | 13 kts | 257° |
| 2026-04-30 10:16 | 58.35817 | -134.59749 | 30 ft | 8 kts | 210° |
| 2026-04-30 10:16 | 58.35796 | -134.59736 | 30 ft | 0 kts | 106° |
| 2026-04-30 10:17 | 58.35795 | -134.59728 | 30 ft | 0 kts | 106° |
| 2026-04-30 10:17 | 58.35771 | -134.59575 | 30 ft | 35 kts | 106° |
| 2026-04-30 10:17 | 58.35654 | -134.58752 | 30 ft | 92 kts | 105° |
| 2026-04-30 10:18 | 58.35447 | -134.57255 | 35 ft | 139 kts | 104° |
| 2026-04-30 10:18 | 58.35224 | -134.55466 | 582 ft | 134 kts | 103° |
| 2026-04-30 10:18 | 58.34901 | -134.53902 | 1166 ft | 132 kts | 137° |
| 2026-04-30 10:19 | 58.33127 | -134.55741 | 1353 ft | 216 kts | 250° |
| 2026-04-30 10:19 | 58.32798 | -134.58395 | 2425 ft | 193 kts | 255° |
| 2026-04-30 10:19 | 58.32702 | -134.60910 | 3196 ft | 202 kts | 281° |
| 2026-04-30 10:19 | 58.33387 | -134.63367 | 3657 ft | 220 kts | 307° |
| 2026-04-30 10:20 | 58.34418 | -134.65712 | 4080 ft | 242 kts | 308° |
| 2026-04-30 10:20 | 58.35999 | -134.71627 | 5094 ft | 266 kts | 267° |
| 2026-04-30 10:20 | 58.36009 | -134.75135 | 6008 ft | 264 kts | 263° |
| 2026-04-30 10:21 | 58.35997 | -134.78644 | 6866 ft | 266 kts | 264° |
| 2026-04-30 10:21 | 58.35999 | -134.82170 | 7741 ft | 267 kts | 264° |
| 2026-04-30 10:21 | 58.35975 | -134.85728 | 8506 ft | 270 kts | 258° |
| 2026-04-30 10:21 | 58.35497 | -134.89150 | 9237 ft | 266 kts | 240° |
| 2026-04-30 10:22 | 58.34507 | -134.92050 | 10059 ft | 259 kts | 224° |
| 2026-04-30 10:22 | 58.33249 | -134.94661 | 10489 ft | 276 kts | 224° |
| 2026-04-30 10:22 | 58.31888 | -134.97403 | 10820 ft | 292 kts | 223° |
| 2026-04-30 10:22 | 58.30477 | -135.00237 | 11463 ft | 298 kts | 224° |
| 2026-04-30 10:23 | 58.29051 | -135.03121 | 12254 ft | 299 kts | 224° |
| 2026-04-30 10:23 | 58.27621 | -135.06021 | 13006 ft | 303 kts | 224° |
| 2026-04-30 10:23 | 58.26172 | -135.08958 | 13716 ft | 307 kts | 224° |
| 2026-04-30 10:23 | 58.24698 | -135.11933 | 14416 ft | 311 kts | 224° |
| 2026-04-30 10:24 | 58.23206 | -135.14938 | 15117 ft | 315 kts | 224° |
| 2026-04-30 10:24 | 58.21690 | -135.17992 | 15813 ft | 319 kts | 224° |
| 2026-04-30 10:24 | 58.20289 | -135.21288 | 16537 ft | 325 kts | 236° |
| 2026-04-30 10:24 | 58.19479 | -135.25328 | 17277 ft | 334 kts | 256° |
| 2026-04-30 10:25 | 58.19494 | -135.29795 | 17989 ft | 348 kts | 277° |
| 2026-04-30 10:25 | 58.20440 | -135.34081 | 18740 ft | 360 kts | 294° |
| 2026-04-30 10:25 | 58.21774 | -135.38221 | 19165 ft | 373 kts | 296° |
| 2026-04-30 10:25 | 58.23195 | -135.42372 | 19750 ft | 378 kts | 297° |
| 2026-04-30 10:26 | 58.24510 | -135.46193 | 20294 ft | 383 kts | 296° |
| 2026-04-30 10:26 | 58.25947 | -135.50477 | 20892 ft | 386 kts | 296° |
| 2026-04-30 10:26 | 58.27373 | -135.54842 | 21483 ft | 390 kts | 295° |
| 2026-04-30 10:26 | 58.28804 | -135.59256 | 22073 ft | 394 kts | 295° |
| 2026-04-30 10:27 | 58.30251 | -135.63696 | 22632 ft | 397 kts | 295° |
| 2026-04-30 10:27 | 58.31726 | -135.68191 | 23164 ft | 402 kts | 295° |
| 2026-04-30 10:27 | 58.33211 | -135.72715 | 23683 ft | 405 kts | 295° |
| 2026-04-30 10:27 | 58.34708 | -135.77295 | 24182 ft | 409 kts | 295° |
| 2026-04-30 10:28 | 58.36213 | -135.81916 | 24665 ft | 413 kts | 295° |
| 2026-04-30 10:28 | 58.37729 | -135.86583 | 25132 ft | 416 kts | 295° |
| 2026-04-30 10:28 | 58.39258 | -135.91296 | 25597 ft | 419 kts | 294° |
| 2026-04-30 10:28 | 58.40795 | -135.96043 | 26033 ft | 423 kts | 294° |
| 2026-04-30 10:29 | 58.42345 | -136.00842 | 26460 ft | 426 kts | 294° |
| 2026-04-30 10:29 | 58.43903 | -136.05673 | 26870 ft | 429 kts | 293° |
| 2026-04-30 10:29 | 58.45473 | -136.10554 | 27271 ft | 432 kts | 293° |
| 2026-04-30 10:29 | 58.47048 | -136.15458 | 27668 ft | 434 kts | 293° |
| 2026-04-30 10:30 | 58.48624 | -136.20367 | 28132 ft | 435 kts | 292° |
| 2026-04-30 10:30 | 58.50203 | -136.25314 | 28491 ft | 436 kts | 292° |
| 2026-04-30 10:30 | 58.51784 | -136.30276 | 28827 ft | 439 kts | 292° |
| 2026-04-30 10:30 | 58.53376 | -136.35280 | 29169 ft | 441 kts | 292° |
| 2026-04-30 10:31 | 58.54979 | -136.40322 | 29462 ft | 445 kts | 292° |
| 2026-04-30 10:31 | 58.56589 | -136.45397 | 29742 ft | 447 kts | 292° |
| 2026-04-30 10:31 | 58.58207 | -136.50510 | 30034 ft | 449 kts | 292° |
| 2026-04-30 10:31 | 58.59827 | -136.55640 | 30332 ft | 450 kts | 292° |
| 2026-04-30 10:32 | 58.61455 | -136.60814 | 30454 ft | 455 kts | 292° |
| 2026-04-30 10:32 | 58.63091 | -136.66029 | 30660 ft | 458 kts | 292° |
| 2026-04-30 10:32 | 58.64736 | -136.71270 | 30927 ft | 458 kts | 292° |
| 2026-04-30 10:32 | 58.66379 | -136.76509 | 31197 ft | 457 kts | 292° |
| 2026-04-30 10:33 | 58.68014 | -136.81739 | 31485 ft | 456 kts | 292° |
| 2026-04-30 10:33 | 58.69641 | -136.86968 | 31770 ft | 455 kts | 292° |
| 2026-04-30 10:33 | 58.71261 | -136.92182 | 32065 ft | 454 kts | 293° |
| 2026-04-30 10:33 | 58.72874 | -136.97391 | 32342 ft | 452 kts | 293° |
| 2026-04-30 10:34 | 58.74479 | -137.02578 | 32616 ft | 451 kts | 293° |
| 2026-04-30 10:34 | 58.76082 | -137.07771 | 32873 ft | 450 kts | 293° |
| 2026-04-30 10:34 | 58.77676 | -137.12949 | 33121 ft | 449 kts | 293° |
| 2026-04-30 10:34 | 58.79263 | -137.18113 | 33383 ft | 447 kts | 293° |
| 2026-04-30 10:35 | 58.80848 | -137.23280 | 33625 ft | 446 kts | 293° |
| 2026-04-30 10:35 | 58.82425 | -137.28436 | 33861 ft | 445 kts | 294° |
| 2026-04-30 10:35 | 58.83995 | -137.33582 | 34087 ft | 444 kts | 293° |
| 2026-04-30 10:35 | 58.85559 | -137.38718 | 34302 ft | 443 kts | 294° |
| 2026-04-30 10:36 | 58.87119 | -137.43852 | 34503 ft | 442 kts | 294° |
| 2026-04-30 10:36 | 58.88673 | -137.48975 | 34710 ft | 442 kts | 294° |
| 2026-04-30 10:36 | 58.90223 | -137.54100 | 34891 ft | 441 kts | 294° |
| 2026-04-30 10:36 | 58.91771 | -137.59228 | 35066 ft | 441 kts | 294° |
| 2026-04-30 10:37 | 58.93315 | -137.64356 | 35230 ft | 441 kts | 294° |
| 2026-04-30 10:37 | 58.94856 | -137.69483 | 35396 ft | 441 kts | 294° |
| 2026-04-30 10:37 | 58.96395 | -137.74620 | 35563 ft | 440 kts | 294° |
| 2026-04-30 10:37 | 58.97928 | -137.79748 | 35727 ft | 440 kts | 294° |
| 2026-04-30 10:38 | 58.99464 | -137.84887 | 35889 ft | 440 kts | 294° |
| 2026-04-30 10:38 | 59.00995 | -137.90016 | 36034 ft | 440 kts | 294° |
| 2026-04-30 10:38 | 59.04068 | -138.00373 | 36065 ft | 444 kts | 294° |
| 2026-04-30 10:39 | 59.07137 | -138.10746 | 36068 ft | 440 kts | 295° |
| 2026-04-30 10:39 | 59.10179 | -138.21075 | 36068 ft | 435 kts | 295° |
| 2026-04-30 10:40 | 59.13163 | -138.31274 | 36069 ft | 433 kts | 295° |
| 2026-04-30 10:40 | 59.16141 | -138.41484 | 36070 ft | 434 kts | 295° |
| 2026-04-30 10:41 | 59.19115 | -138.51725 | 36070 ft | 434 kts | 294° |
| 2026-04-30 10:41 | 59.22085 | -138.61995 | 36069 ft | 434 kts | 294° |
| 2026-04-30 10:42 | 59.25044 | -138.72278 | 36069 ft | 434 kts | 294° |
| 2026-04-30 10:42 | 59.27991 | -138.82563 | 36075 ft | 433 kts | 294° |
| 2026-04-30 10:43 | 59.30927 | -138.92856 | 36076 ft | 433 kts | 294° |
| 2026-04-30 10:43 | 59.33852 | -139.03156 | 36077 ft | 433 kts | 294° |
| 2026-04-30 10:44 | 59.36766 | -139.13464 | 36075 ft | 432 kts | 294° |
| 2026-04-30 10:44 | 59.39667 | -139.23773 | 36075 ft | 431 kts | 294° |
| 2026-04-30 10:45 | 59.42555 | -139.34082 | 36078 ft | 431 kts | 294° |
| 2026-04-30 10:45 | 59.45432 | -139.44397 | 36077 ft | 431 kts | 294° |
| 2026-04-30 10:46 | 59.47836 | -139.53059 | 36077 ft | 431 kts | 293° |
| 2026-04-30 10:46 | 59.50682 | -139.63420 | 36074 ft | 429 kts | 290° |
| 2026-04-30 10:47 | 59.52721 | -139.74333 | 36081 ft | 424 kts | 284° |
| 2026-04-30 10:47 | 59.54578 | -139.85362 | 36078 ft | 424 kts | 283° |
| 2026-04-30 10:48 | 59.56423 | -139.96401 | 36077 ft | 424 kts | 283° |
| 2026-04-30 10:48 | 59.58279 | -140.07450 | 36076 ft | 424 kts | 284° |
| 2026-04-30 10:49 | 59.60114 | -140.18495 | 36075 ft | 423 kts | 283° |
| 2026-04-30 10:49 | 59.61934 | -140.29538 | 36074 ft | 423 kts | 283° |
| 2026-04-30 10:50 | 59.63749 | -140.40586 | 36072 ft | 422 kts | 283° |
| 2026-04-30 10:50 | 59.65551 | -140.51636 | 36069 ft | 422 kts | 283° |
| 2026-04-30 10:51 | 59.67338 | -140.62666 | 36070 ft | 421 kts | 283° |
| 2026-04-30 10:51 | 59.69115 | -140.73701 | 36066 ft | 421 kts | 283° |
| 2026-04-30 10:52 | 59.70884 | -140.84745 | 36064 ft | 420 kts | 283° |
| 2026-04-30 10:52 | 59.72638 | -140.95777 | 36061 ft | 419 kts | 283° |
| 2026-04-30 10:53 | 59.74378 | -141.06789 | 36060 ft | 418 kts | 283° |
| 2026-04-30 10:53 | 59.76109 | -141.17814 | 36057 ft | 417 kts | 283° |
| 2026-04-30 10:54 | 59.77825 | -141.28805 | 36056 ft | 417 kts | 283° |
| 2026-04-30 10:54 | 59.79531 | -141.39811 | 36054 ft | 416 kts | 283° |
| 2026-04-30 10:55 | 59.81221 | -141.50779 | 36052 ft | 415 kts | 283° |
| 2026-04-30 10:55 | 59.82902 | -141.61762 | 36051 ft | 415 kts | 283° |
| 2026-04-30 10:56 | 59.84573 | -141.72748 | 36050 ft | 414 kts | 283° |
| 2026-04-30 10:56 | 59.86231 | -141.83721 | 36049 ft | 414 kts | 283° |
| 2026-04-30 10:57 | 59.87878 | -141.94698 | 36049 ft | 414 kts | 283° |
| 2026-04-30 10:57 | 59.89516 | -142.05679 | 36075 ft | 414 kts | 283° |
| 2026-04-30 10:58 | 59.91145 | -142.16672 | 36083 ft | 414 kts | 283° |
| 2026-04-30 10:58 | 59.92766 | -142.27689 | 36086 ft | 414 kts | 283° |
| 2026-04-30 10:59 | 59.94389 | -142.38785 | 36087 ft | 414 kts | 282° |
| 2026-04-30 10:59 | 59.95978 | -142.49730 | 36088 ft | 413 kts | 282° |
| 2026-04-30 11:00 | 59.97567 | -142.60742 | 36089 ft | 413 kts | 282° |
| 2026-04-30 11:00 | 59.99155 | -142.71826 | 36091 ft | 413 kts | 282° |
| 2026-04-30 11:01 | 60.00725 | -142.82857 | 36092 ft | 413 kts | 282° |
| 2026-04-30 11:01 | 60.02288 | -142.93922 | 36094 ft | 414 kts | 282° |
| 2026-04-30 11:02 | 60.03847 | -143.05024 | 36096 ft | 414 kts | 282° |
| 2026-04-30 11:02 | 60.05393 | -143.16113 | 36105 ft | 414 kts | 282° |
| 2026-04-30 11:03 | 60.06927 | -143.27194 | 36107 ft | 413 kts | 282° |
| 2026-04-30 11:04 | 60.09204 | -143.43787 | 36110 ft | 411 kts | 282° |
| 2026-04-30 11:04 | 60.10707 | -143.54831 | 36111 ft | 410 kts | 282° |
| 2026-04-30 11:05 | 60.12196 | -143.65856 | 36113 ft | 409 kts | 282° |
| 2026-04-30 11:05 | 60.13672 | -143.76862 | 36114 ft | 408 kts | 281° |
| 2026-04-30 11:06 | 60.15138 | -143.87869 | 36115 ft | 408 kts | 282° |
| 2026-04-30 11:06 | 60.16603 | -143.98951 | 36117 ft | 408 kts | 281° |
| 2026-04-30 11:07 | 60.18048 | -144.09957 | 36118 ft | 408 kts | 281° |
| 2026-04-30 11:07 | 60.19484 | -144.20978 | 36119 ft | 408 kts | 281° |
| 2026-04-30 11:08 | 60.20912 | -144.32014 | 36120 ft | 408 kts | 281° |
| 2026-04-30 11:08 | 60.22333 | -144.43072 | 36120 ft | 408 kts | 281° |
| 2026-04-30 11:09 | 60.23744 | -144.54139 | 36121 ft | 409 kts | 281° |
| 2026-04-30 11:09 | 60.25146 | -144.65252 | 36122 ft | 410 kts | 281° |
| 2026-04-30 11:10 | 60.26546 | -144.76369 | 36122 ft | 410 kts | 281° |
| 2026-04-30 11:10 | 60.27936 | -144.87501 | 36123 ft | 410 kts | 281° |
| 2026-04-30 11:11 | 60.29311 | -144.98636 | 36123 ft | 409 kts | 281° |
| 2026-04-30 11:11 | 60.30680 | -145.09784 | 36123 ft | 410 kts | 280° |
| 2026-04-30 11:12 | 60.32037 | -145.20939 | 36123 ft | 409 kts | 280° |
| 2026-04-30 11:12 | 60.33386 | -145.32097 | 36123 ft | 409 kts | 280° |
| 2026-04-30 11:13 | 60.34726 | -145.43237 | 36123 ft | 408 kts | 280° |
| 2026-04-30 11:13 | 60.36049 | -145.54367 | 36125 ft | 407 kts | 280° |
| 2026-04-30 11:14 | 60.37370 | -145.65560 | 36125 ft | 406 kts | 280° |
| 2026-04-30 11:14 | 60.38671 | -145.76664 | 36127 ft | 406 kts | 280° |
| 2026-04-30 11:15 | 60.39962 | -145.87779 | 36128 ft | 406 kts | 280° |
| 2026-04-30 11:15 | 60.41243 | -145.98891 | 36131 ft | 406 kts | 279° |
| 2026-04-30 11:16 | 60.42515 | -146.10004 | 36134 ft | 405 kts | 279° |
| 2026-04-30 11:16 | 60.43774 | -146.21107 | 36138 ft | 405 kts | 279° |
| 2026-04-30 11:17 | 60.45026 | -146.32237 | 36151 ft | 406 kts | 279° |
| 2026-04-30 11:17 | 60.46272 | -146.43400 | 36157 ft | 407 kts | 279° |
| 2026-04-30 11:18 | 60.47508 | -146.54607 | 36158 ft | 407 kts | 279° |
| 2026-04-30 11:18 | 60.49960 | -146.71191 | 36159 ft | 411 kts | 284° |
| 2026-04-30 11:19 | 60.51488 | -146.80417 | 35784 ft | 412 kts | 284° |
| 2026-04-30 11:19 | 60.52393 | -146.85887 | 35268 ft | 405 kts | 284° |
| 2026-04-30 11:19 | 60.53278 | -146.91266 | 34780 ft | 398 kts | 284° |
| 2026-04-30 11:20 | 60.54142 | -146.96558 | 34307 ft | 392 kts | 284° |
| 2026-04-30 11:20 | 60.54989 | -147.01772 | 33844 ft | 385 kts | 284° |
| 2026-04-30 11:20 | 60.55819 | -147.06888 | 33390 ft | 379 kts | 284° |
| 2026-04-30 11:20 | 60.56636 | -147.11932 | 32943 ft | 373 kts | 284° |
| 2026-04-30 11:21 | 60.57438 | -147.16893 | 32502 ft | 367 kts | 284° |
| 2026-04-30 11:21 | 60.58228 | -147.21794 | 32071 ft | 361 kts | 284° |
| 2026-04-30 11:21 | 60.59002 | -147.26615 | 31644 ft | 356 kts | 284° |
| 2026-04-30 11:21 | 60.59762 | -147.31360 | 31224 ft | 351 kts | 284° |
| 2026-04-30 11:22 | 60.60511 | -147.36046 | 30809 ft | 345 kts | 284° |
| 2026-04-30 11:22 | 60.61247 | -147.40664 | 30402 ft | 340 kts | 284° |
| 2026-04-30 11:22 | 60.61971 | -147.45219 | 29997 ft | 335 kts | 284° |
| 2026-04-30 11:22 | 60.62681 | -147.49702 | 29599 ft | 331 kts | 284° |
| 2026-04-30 11:23 | 60.63382 | -147.54128 | 29190 ft | 326 kts | 284° |
| 2026-04-30 11:23 | 60.64072 | -147.58509 | 28782 ft | 322 kts | 284° |
| 2026-04-30 11:23 | 60.65435 | -147.67199 | 28013 ft | 331 kts | 284° |
| 2026-04-30 11:24 | 60.66130 | -147.71649 | 27619 ft | 328 kts | 284° |
| 2026-04-30 11:24 | 60.66819 | -147.76042 | 27231 ft | 323 kts | 284° |
| 2026-04-30 11:24 | 60.67496 | -147.80368 | 26851 ft | 318 kts | 284° |
| 2026-04-30 11:25 | 60.68810 | -147.88835 | 26108 ft | 308 kts | 284° |
| 2026-04-30 11:25 | 60.69461 | -147.93056 | 25681 ft | 313 kts | 284° |
| 2026-04-30 11:25 | 60.70835 | -148.02023 | 24726 ft | 337 kts | 284° |
| 2026-04-30 11:26 | 60.72247 | -148.11196 | 23893 ft | 341 kts | 284° |
| 2026-04-30 11:26 | 60.72945 | -148.15776 | 23482 ft | 335 kts | 284° |
| 2026-04-30 11:26 | 60.73632 | -148.20282 | 23082 ft | 329 kts | 284° |
| 2026-04-30 11:27 | 60.74305 | -148.24705 | 22687 ft | 323 kts | 284° |
| 2026-04-30 11:27 | 60.74966 | -148.29086 | 22302 ft | 327 kts | 284° |
| 2026-04-30 11:27 | 60.75638 | -148.33611 | 21915 ft | 332 kts | 283° |
| 2026-04-30 11:27 | 60.76304 | -148.38082 | 21491 ft | 327 kts | 284° |
| 2026-04-30 11:28 | 60.77609 | -148.46833 | 20682 ft | 316 kts | 283° |
| 2026-04-30 11:28 | 60.78255 | -148.51204 | 20296 ft | 330 kts | 283° |
| 2026-04-30 11:28 | 60.78913 | -148.55677 | 19897 ft | 326 kts | 283° |
| 2026-04-30 11:29 | 60.79563 | -148.60072 | 19509 ft | 319 kts | 283° |
| 2026-04-30 11:29 | 60.80199 | -148.64381 | 19127 ft | 313 kts | 283° |
| 2026-04-30 11:29 | 60.81471 | -148.73107 | 18358 ft | 323 kts | 283° |
| 2026-04-30 11:30 | 60.82735 | -148.81745 | 17595 ft | 310 kts | 283° |
| 2026-04-30 11:30 | 60.83355 | -148.86029 | 17220 ft | 322 kts | 283° |
| 2026-04-30 11:30 | 60.83988 | -148.90432 | 16831 ft | 320 kts | 283° |
| 2026-04-30 11:31 | 60.84616 | -148.94769 | 16397 ft | 314 kts | 283° |
| 2026-04-30 11:31 | 60.85231 | -148.99018 | 16007 ft | 308 kts | 283° |
| 2026-04-30 11:31 | 60.85842 | -149.03283 | 15630 ft | 319 kts | 283° |
| 2026-04-30 11:31 | 60.86462 | -149.07640 | 15243 ft | 317 kts | 283° |
| 2026-04-30 11:32 | 60.87079 | -149.11975 | 14860 ft | 315 kts | 283° |
| 2026-04-30 11:32 | 60.87694 | -149.16278 | 14481 ft | 314 kts | 283° |
| 2026-04-30 11:32 | 60.88316 | -149.20632 | 14099 ft | 314 kts | 284° |
| 2026-04-30 11:33 | 60.90089 | -149.28910 | 13332 ft | 317 kts | 291° |
| 2026-04-30 11:33 | 60.91023 | -149.32999 | 12950 ft | 316 kts | 292° |
| 2026-04-30 11:33 | 60.91959 | -149.37089 | 12568 ft | 316 kts | 292° |
| 2026-04-30 11:33 | 60.92890 | -149.41170 | 12187 ft | 316 kts | 292° |
| 2026-04-30 11:34 | 60.93820 | -149.45266 | 11804 ft | 316 kts | 292° |
| 2026-04-30 11:34 | 60.94745 | -149.49352 | 11422 ft | 315 kts | 292° |
| 2026-04-30 11:34 | 60.95670 | -149.53447 | 11040 ft | 315 kts | 292° |
| 2026-04-30 11:34 | 60.96594 | -149.57541 | 10659 ft | 315 kts | 292° |
| 2026-04-30 11:35 | 60.97510 | -149.61615 | 10431 ft | 308 kts | 292° |
| 2026-04-30 11:35 | 60.98386 | -149.65505 | 10308 ft | 291 kts | 292° |
| 2026-04-30 11:35 | 60.99214 | -149.69176 | 10184 ft | 275 kts | 292° |
| 2026-04-30 11:35 | 61.00039 | -149.72682 | 10066 ft | 270 kts | 299° |
| 2026-04-30 11:36 | 61.01206 | -149.75702 | 9917 ft | 272 kts | 314° |
| 2026-04-30 11:36 | 61.02589 | -149.78436 | 9552 ft | 278 kts | 315° |
| 2026-04-30 11:36 | 61.04003 | -149.81136 | 9197 ft | 274 kts | 316° |
| 2026-04-30 11:36 | 61.05395 | -149.83770 | 8857 ft | 270 kts | 315° |
| 2026-04-30 11:37 | 61.06771 | -149.86391 | 8527 ft | 268 kts | 315° |
| 2026-04-30 11:37 | 61.08129 | -149.88999 | 8204 ft | 265 kts | 315° |
| 2026-04-30 11:37 | 61.09411 | -149.91714 | 7891 ft | 262 kts | 304° |
| 2026-04-30 11:37 | 61.10240 | -149.95022 | 7598 ft | 259 kts | 285° |
| 2026-04-30 11:38 | 61.10485 | -149.98650 | 7300 ft | 254 kts | 268° |
| 2026-04-30 11:38 | 61.10462 | -150.02310 | 6962 ft | 253 kts | 266° |
| 2026-04-30 11:38 | 61.10415 | -150.05957 | 6642 ft | 254 kts | 266° |
| 2026-04-30 11:38 | 61.10363 | -150.09584 | 6330 ft | 252 kts | 266° |
| 2026-04-30 11:39 | 61.10316 | -150.13199 | 6022 ft | 250 kts | 266° |
| 2026-04-30 11:39 | 61.10270 | -150.16799 | 5717 ft | 250 kts | 266° |
| 2026-04-30 11:39 | 61.10224 | -150.20376 | 5414 ft | 249 kts | 266° |
| 2026-04-30 11:39 | 61.10179 | -150.23972 | 5181 ft | 242 kts | 266° |
| 2026-04-30 11:40 | 61.10138 | -150.27356 | 5083 ft | 229 kts | 266° |
| 2026-04-30 11:40 | 61.10097 | -150.30574 | 4992 ft | 222 kts | 266° |
| 2026-04-30 11:40 | 61.10028 | -150.33811 | 4620 ft | 228 kts | 265° |
| 2026-04-30 11:40 | 61.09940 | -150.37099 | 4238 ft | 229 kts | 264° |
| 2026-04-30 11:41 | 61.09849 | -150.40364 | 3930 ft | 226 kts | 265° |
| 2026-04-30 11:41 | 61.09764 | -150.43567 | 3695 ft | 219 kts | 265° |
| 2026-04-30 11:41 | 61.09685 | -150.46652 | 3543 ft | 213 kts | 265° |
| 2026-04-30 11:41 | 61.09604 | -150.49710 | 3474 ft | 212 kts | 265° |
| 2026-04-30 11:42 | 61.09816 | -150.52675 | 3469 ft | 211 kts | 295° |
| 2026-04-30 11:42 | 61.10815 | -150.54856 | 3487 ft | 214 kts | 332° |
| 2026-04-30 11:42 | 61.12265 | -150.55477 | 3412 ft | 217 kts | 7° |
| 2026-04-30 11:42 | 61.13665 | -150.54408 | 3341 ft | 213 kts | 30° |
| 2026-04-30 11:43 | 61.14938 | -150.52916 | 3334 ft | 209 kts | 32° |
| 2026-04-30 11:43 | 61.15983 | -150.50894 | 3347 ft | 205 kts | 57° |
| 2026-04-30 11:43 | 61.16566 | -150.48205 | 3329 ft | 206 kts | 80° |
| 2026-04-30 11:43 | 61.16659 | -150.45267 | 3271 ft | 205 kts | 92° |
| 2026-04-30 11:44 | 61.16670 | -150.42326 | 3196 ft | 206 kts | 92° |
| 2026-04-30 11:44 | 61.16681 | -150.39345 | 3071 ft | 206 kts | 91° |
| 2026-04-30 11:44 | 61.16692 | -150.36401 | 3031 ft | 203 kts | 92° |
| 2026-04-30 11:44 | 61.16703 | -150.33467 | 2898 ft | 205 kts | 92° |
| 2026-04-30 11:45 | 61.16714 | -150.30563 | 2637 ft | 198 kts | 92° |
| 2026-04-30 11:45 | 61.16723 | -150.27775 | 2374 ft | 187 kts | 91° |
| 2026-04-30 11:45 | 61.16732 | -150.25183 | 2140 ft | 175 kts | 92° |
| 2026-04-30 11:45 | 61.16739 | -150.22691 | 1904 ft | 171 kts | 92° |
| 2026-04-30 11:46 | 61.16745 | -150.20243 | 1677 ft | 168 kts | 92° |
| 2026-04-30 11:46 | 61.16752 | -150.17864 | 1462 ft | 160 kts | 91° |
| 2026-04-30 11:46 | 61.16760 | -150.15638 | 1256 ft | 152 kts | 90° |
| 2026-04-30 11:46 | 61.16764 | -150.13466 | 1067 ft | 150 kts | 92° |
| 2026-04-30 11:47 | 61.16761 | -150.11332 | 898 ft | 148 kts | 91° |
| 2026-04-30 11:47 | 61.16763 | -150.09208 | 682 ft | 147 kts | 91° |
| 2026-04-30 11:47 | 61.16772 | -150.07106 | 489 ft | 146 kts | 91° |
| 2026-04-30 11:47 | 61.16780 | -150.05014 | 290 ft | 145 kts | 91° |
| 2026-04-30 11:48 | 61.16788 | -150.02946 | 167 ft | 135 kts | 92° |
| 2026-04-30 11:48 | 61.16783 | -150.01403 | 162 ft | 73 kts | 89° |
| 2026-04-30 11:48 | 61.16783 | -150.00556 | 161 ft | 53 kts | 90° |
| 2026-04-30 11:48 | 61.16785 | -149.99984 | 161 ft | 26 kts | 89° |
| 2026-04-30 11:49 | 61.16824 | -149.99642 | 161 ft | 24 kts | 63° |
| 2026-04-30 11:49 | 61.16920 | -149.99385 | 161 ft | 22 kts | 38° |
| 2026-04-30 11:49 | 61.17045 | -149.99196 | 161 ft | 23 kts | 35° |
| 2026-04-30 11:49 | 61.17159 | -149.98990 | 161 ft | 20 kts | 50° |
| 2026-04-30 11:50 | 61.17246 | -149.98816 | 161 ft | 15 kts | 13° |
| 2026-04-30 11:50 | 61.17339 | -149.98855 | 161 ft | 15 kts | 341° |
| 2026-04-30 11:50 | 61.17448 | -149.98935 | 161 ft | 18 kts | 340° |
| 2026-04-30 11:50 | 61.17574 | -149.99030 | 161 ft | 18 kts | 339° |
| 2026-04-30 11:51 | 61.17670 | -149.98950 | 161 ft | 18 kts | 68° |
| 2026-04-30 11:51 | 61.17666 | -149.98750 | 161 ft | 13 kts | 141° |
| 2026-04-30 11:51 | 61.17597 | -149.98669 | 161 ft | 10 kts | 110° |
| 2026-04-30 11:51 | 61.17580 | -149.98539 | 161 ft | 9 kts | 105° |
| 2026-04-30 11:52 | 61.17574 | -149.98488 | 161 ft | 2 kts | 105° |
| 2026-04-30 11:52 | 61.17573 | -149.98482 | 161 ft | 0 kts | 105° |